sensor_id;sensor_type;location;lat;lon;timestamp;P1;durP1;ratioP1;P2;durP2;ratioP2
4057;SDS011;2044;48.692;9.020;2022-10-16T00:01:34;1.70;;;1.60;;
4057;SDS011;2044;48.692;9.020;2022-10-16T00:04:03;2.20;;;1.47;;
4057;SDS011;2044;48.692;9.020;2022-10-16T00:06:30;2.43;;;1.77;;
4057;SDS011;2044;48.692;9.020;2022-10-16T00:08:57;2.90;;;1.73;;
4057;SDS011;2044;48.692;9.020;2022-10-16T00:11:25;3.07;;;1.73;;
4057;SDS011;2044;48.692;9.020;2022-10-16T00:13:54;1.73;;;1.60;;
4057;SDS011;2044;48.692;9.020;2022-10-16T00:16:22;2.10;;;1.90;;
4057;SDS011;2044;48.692;9.020;2022-10-16T00:18:49;2.70;;;1.73;;
4057;SDS011;2044;48.692;9.020;2022-10-16T00:21:18;3.60;;;1.50;;
4057;SDS011;2044;48.692;9.020;2022-10-16T00:23:46;3.70;;;1.80;;
4057;SDS011;2044;48.692;9.020;2022-10-16T00:26:17;2.30;;;2.10;;
4057;SDS011;2044;48.692;9.020;2022-10-16T00:28:45;1.90;;;1.63;;
4057;SDS011;2044;48.692;9.020;2022-10-16T00:31:12;2.53;;;1.70;;
4057;SDS011;2044;48.692;9.020;2022-10-16T00:33:40;2.67;;;1.90;;
4057;SDS011;2044;48.692;9.020;2022-10-16T00:36:07;2.47;;;1.80;;
4057;SDS011;2044;48.692;9.020;2022-10-16T00:38:38;1.60;;;1.43;;
4057;SDS011;2044;48.692;9.020;2022-10-16T00:41:06;1.87;;;1.33;;
4057;SDS011;2044;48.692;9.020;2022-10-16T00:43:37;1.70;;;1.60;;
4057;SDS011;2044;48.692;9.020;2022-10-16T00:46:09;2.17;;;1.40;;
4057;SDS011;2044;48.692;9.020;2022-10-16T00:48:40;2.10;;;1.53;;
4057;SDS011;2044;48.692;9.020;2022-10-16T00:51:08;2.53;;;1.50;;
4057;SDS011;2044;48.692;9.020;2022-10-16T00:53:35;2.80;;;1.80;;
4057;SDS011;2044;48.692;9.020;2022-10-16T00:56:04;1.53;;;1.40;;
4057;SDS011;2044;48.692;9.020;2022-10-16T00:58:31;2.20;;;1.40;;
4057;SDS011;2044;48.692;9.020;2022-10-16T01:00:58;3.00;;;1.60;;
4057;SDS011;2044;48.692;9.020;2022-10-16T01:03:26;2.63;;;1.67;;
4057;SDS011;2044;48.692;9.020;2022-10-16T01:05:59;2.40;;;1.47;;
4057;SDS011;2044;48.692;9.020;2022-10-16T01:08:37;1.90;;;1.70;;
4057;SDS011;2044;48.692;9.020;2022-10-16T01:11:14;1.40;;;1.30;;
4057;SDS011;2044;48.692;9.020;2022-10-16T01:13:46;1.50;;;1.40;;
4057;SDS011;2044;48.692;9.020;2022-10-16T01:16:19;1.63;;;1.53;;
4057;SDS011;2044;48.692;9.020;2022-10-16T01:18:56;1.70;;;1.60;;
4057;SDS011;2044;48.692;9.020;2022-10-16T01:21:29;4.93;;;1.73;;
4057;SDS011;2044;48.692;9.020;2022-10-16T01:24:02;6.53;;;1.53;;
4057;SDS011;2044;48.692;9.020;2022-10-16T01:26:41;1.40;;;1.30;;
4057;SDS011;2044;48.692;9.020;2022-10-16T01:29:20;1.63;;;1.50;;
4057;SDS011;2044;48.692;9.020;2022-10-16T01:31:53;5.13;;;1.73;;
4057;SDS011;2044;48.692;9.020;2022-10-16T01:34:27;2.90;;;1.60;;
4057;SDS011;2044;48.692;9.020;2022-10-16T01:37:00;4.90;;;1.57;;
4057;SDS011;2044;48.692;9.020;2022-10-16T01:39:32;1.60;;;1.50;;
4057;SDS011;2044;48.692;9.020;2022-10-16T01:42:04;1.47;;;1.30;;
4057;SDS011;2044;48.692;9.020;2022-10-16T01:44:36;2.00;;;1.17;;
4057;SDS011;2044;48.692;9.020;2022-10-16T01:47:05;1.80;;;1.70;;
4057;SDS011;2044;48.692;9.020;2022-10-16T01:49:34;2.43;;;1.30;;
4057;SDS011;2044;48.692;9.020;2022-10-16T01:52:05;1.43;;;1.33;;
4057;SDS011;2044;48.692;9.020;2022-10-16T01:54:35;3.03;;;1.30;;
4057;SDS011;2044;48.692;9.020;2022-10-16T01:57:03;2.40;;;1.47;;
4057;SDS011;2044;48.692;9.020;2022-10-16T01:59:32;1.67;;;1.57;;
4057;SDS011;2044;48.692;9.020;2022-10-16T02:02:04;1.57;;;1.30;;
4057;SDS011;2044;48.692;9.020;2022-10-16T02:04:34;3.90;;;1.80;;
4057;SDS011;2044;48.692;9.020;2022-10-16T02:07:04;1.90;;;1.53;;
4057;SDS011;2044;48.692;9.020;2022-10-16T02:09:32;2.80;;;1.73;;
4057;SDS011;2044;48.692;9.020;2022-10-16T02:12:01;1.50;;;1.40;;
4057;SDS011;2044;48.692;9.020;2022-10-16T02:14:33;2.50;;;1.50;;
4057;SDS011;2044;48.692;9.020;2022-10-16T02:17:10;1.30;;;1.20;;
4057;SDS011;2044;48.692;9.020;2022-10-16T02:19:38;2.20;;;1.57;;
4057;SDS011;2044;48.692;9.020;2022-10-16T02:22:06;2.40;;;2.20;;
4057;SDS011;2044;48.692;9.020;2022-10-16T02:24:38;1.37;;;1.27;;
4057;SDS011;2044;48.692;9.020;2022-10-16T02:27:10;2.07;;;1.93;;
4057;SDS011;2044;48.692;9.020;2022-10-16T02:29:42;1.50;;;1.40;;
4057;SDS011;2044;48.692;9.020;2022-10-16T02:32:16;1.60;;;1.33;;
4057;SDS011;2044;48.692;9.020;2022-10-16T02:34:47;3.70;;;1.40;;
4057;SDS011;2044;48.692;9.020;2022-10-16T02:37:15;1.20;;;1.10;;
4057;SDS011;2044;48.692;9.020;2022-10-16T02:39:43;1.20;;;1.07;;
4057;SDS011;2044;48.692;9.020;2022-10-16T02:42:11;1.40;;;1.30;;
4057;SDS011;2044;48.692;9.020;2022-10-16T02:44:38;1.63;;;1.33;;
4057;SDS011;2044;48.692;9.020;2022-10-16T02:47:05;1.33;;;1.23;;
4057;SDS011;2044;48.692;9.020;2022-10-16T02:49:33;3.10;;;1.70;;
4057;SDS011;2044;48.692;9.020;2022-10-16T02:52:00;1.20;;;1.10;;
4057;SDS011;2044;48.692;9.020;2022-10-16T02:54:27;1.67;;;1.43;;
4057;SDS011;2044;48.692;9.020;2022-10-16T02:56:53;1.40;;;1.30;;
4057;SDS011;2044;48.692;9.020;2022-10-16T02:59:20;1.80;;;1.40;;
4057;SDS011;2044;48.692;9.020;2022-10-16T03:01:47;2.20;;;1.40;;
4057;SDS011;2044;48.692;9.020;2022-10-16T03:04:13;1.50;;;1.30;;
4057;SDS011;2044;48.692;9.020;2022-10-16T03:06:41;2.33;;;1.30;;
4057;SDS011;2044;48.692;9.020;2022-10-16T03:09:08;4.57;;;1.37;;
4057;SDS011;2044;48.692;9.020;2022-10-16T03:11:35;1.57;;;1.40;;
4057;SDS011;2044;48.692;9.020;2022-10-16T03:14:01;3.10;;;1.40;;
4057;SDS011;2044;48.692;9.020;2022-10-16T03:16:28;2.03;;;1.50;;
4057;SDS011;2044;48.692;9.020;2022-10-16T03:18:55;1.80;;;1.37;;
4057;SDS011;2044;48.692;9.020;2022-10-16T03:21:22;1.60;;;1.50;;
4057;SDS011;2044;48.692;9.020;2022-10-16T03:23:50;2.97;;;1.60;;
4057;SDS011;2044;48.692;9.020;2022-10-16T03:26:16;1.77;;;1.50;;
4057;SDS011;2044;48.692;9.020;2022-10-16T03:28:43;2.17;;;1.50;;
4057;SDS011;2044;48.692;9.020;2022-10-16T03:31:10;1.30;;;1.20;;
4057;SDS011;2044;48.692;9.020;2022-10-16T03:33:37;1.90;;;1.50;;
4057;SDS011;2044;48.692;9.020;2022-10-16T03:36:03;2.00;;;1.80;;
4057;SDS011;2044;48.692;9.020;2022-10-16T03:38:30;2.10;;;1.30;;
4057;SDS011;2044;48.692;9.020;2022-10-16T03:40:58;1.60;;;1.50;;
4057;SDS011;2044;48.692;9.020;2022-10-16T03:43:25;2.27;;;1.60;;
4057;SDS011;2044;48.692;9.020;2022-10-16T03:45:52;2.23;;;1.90;;
4057;SDS011;2044;48.692;9.020;2022-10-16T03:48:19;6.30;;;3.73;;
4057;SDS011;2044;48.692;9.020;2022-10-16T03:50:45;1.80;;;1.67;;
4057;SDS011;2044;48.692;9.020;2022-10-16T03:53:13;2.27;;;1.50;;
4057;SDS011;2044;48.692;9.020;2022-10-16T03:55:40;2.40;;;1.40;;
4057;SDS011;2044;48.692;9.020;2022-10-16T03:58:09;3.33;;;1.50;;
4057;SDS011;2044;48.692;9.020;2022-10-16T04:00:39;2.80;;;2.00;;
4057;SDS011;2044;48.692;9.020;2022-10-16T04:03:06;2.70;;;1.87;;
4057;SDS011;2044;48.692;9.020;2022-10-16T04:05:33;2.47;;;1.43;;
4057;SDS011;2044;48.692;9.020;2022-10-16T04:08:00;2.10;;;1.93;;
4057;SDS011;2044;48.692;9.020;2022-10-16T04:10:27;10.43;;;2.07;;
4057;SDS011;2044;48.692;9.020;2022-10-16T04:12:53;4.53;;;1.80;;
4057;SDS011;2044;48.692;9.020;2022-10-16T04:15:22;1.63;;;1.53;;
4057;SDS011;2044;48.692;9.020;2022-10-16T04:17:49;4.50;;;1.77;;
4057;SDS011;2044;48.692;9.020;2022-10-16T04:20:16;3.90;;;1.77;;
4057;SDS011;2044;48.692;9.020;2022-10-16T04:22:42;7.57;;;2.37;;
4057;SDS011;2044;48.692;9.020;2022-10-16T04:25:09;2.37;;;1.90;;
4057;SDS011;2044;48.692;9.020;2022-10-16T04:27:37;3.27;;;2.20;;
4057;SDS011;2044;48.692;9.020;2022-10-16T04:30:04;3.00;;;2.00;;
4057;SDS011;2044;48.692;9.020;2022-10-16T04:32:33;2.77;;;1.93;;
4057;SDS011;2044;48.692;9.020;2022-10-16T04:35:00;1.73;;;1.63;;
4057;SDS011;2044;48.692;9.020;2022-10-16T04:37:27;7.77;;;1.87;;
4057;SDS011;2044;48.692;9.020;2022-10-16T04:39:54;2.10;;;1.80;;
4057;SDS011;2044;48.692;9.020;2022-10-16T04:42:21;3.53;;;2.17;;
4057;SDS011;2044;48.692;9.020;2022-10-16T04:44:48;1.73;;;1.43;;
4057;SDS011;2044;48.692;9.020;2022-10-16T04:47:15;1.77;;;1.57;;
4057;SDS011;2044;48.692;9.020;2022-10-16T04:49:43;3.20;;;2.00;;
4057;SDS011;2044;48.692;9.020;2022-10-16T04:52:09;3.27;;;1.70;;
4057;SDS011;2044;48.692;9.020;2022-10-16T04:54:36;2.00;;;1.70;;
4057;SDS011;2044;48.692;9.020;2022-10-16T04:57:03;1.80;;;1.70;;
4057;SDS011;2044;48.692;9.020;2022-10-16T04:59:29;7.13;;;2.00;;
4057;SDS011;2044;48.692;9.020;2022-10-16T05:01:56;2.43;;;2.20;;
4057;SDS011;2044;48.692;9.020;2022-10-16T05:04:23;2.00;;;1.77;;
4057;SDS011;2044;48.692;9.020;2022-10-16T05:06:51;2.23;;;1.40;;
4057;SDS011;2044;48.692;9.020;2022-10-16T05:09:18;1.93;;;1.30;;
4057;SDS011;2044;48.692;9.020;2022-10-16T05:11:45;3.00;;;2.27;;
4057;SDS011;2044;48.692;9.020;2022-10-16T05:14:12;1.50;;;1.40;;
4057;SDS011;2044;48.692;9.020;2022-10-16T05:16:38;2.33;;;1.80;;
4057;SDS011;2044;48.692;9.020;2022-10-16T05:19:05;1.93;;;1.80;;
4057;SDS011;2044;48.692;9.020;2022-10-16T05:21:32;2.20;;;1.73;;
4057;SDS011;2044;48.692;9.020;2022-10-16T05:24:00;2.13;;;1.43;;
4057;SDS011;2044;48.692;9.020;2022-10-16T05:26:27;2.80;;;1.97;;
4057;SDS011;2044;48.692;9.020;2022-10-16T05:28:53;2.73;;;1.70;;
4057;SDS011;2044;48.692;9.020;2022-10-16T05:31:20;2.70;;;1.97;;
4057;SDS011;2044;48.692;9.020;2022-10-16T05:33:47;6.60;;;1.73;;
4057;SDS011;2044;48.692;9.020;2022-10-16T05:36:14;3.43;;;2.10;;
4057;SDS011;2044;48.692;9.020;2022-10-16T05:38:40;3.03;;;1.90;;
4057;SDS011;2044;48.692;9.020;2022-10-16T05:41:10;3.07;;;1.80;;
4057;SDS011;2044;48.692;9.020;2022-10-16T05:43:36;1.93;;;1.73;;
4057;SDS011;2044;48.692;9.020;2022-10-16T05:46:04;2.20;;;1.90;;
4057;SDS011;2044;48.692;9.020;2022-10-16T05:48:32;7.43;;;2.40;;
4057;SDS011;2044;48.692;9.020;2022-10-16T05:50:59;3.87;;;1.83;;
4057;SDS011;2044;48.692;9.020;2022-10-16T05:53:27;5.53;;;1.77;;
4057;SDS011;2044;48.692;9.020;2022-10-16T05:55:55;2.40;;;1.60;;
4057;SDS011;2044;48.692;9.020;2022-10-16T05:58:23;1.83;;;1.73;;
4057;SDS011;2044;48.692;9.020;2022-10-16T06:00:52;1.63;;;1.53;;
4057;SDS011;2044;48.692;9.020;2022-10-16T06:03:20;5.63;;;2.13;;
4057;SDS011;2044;48.692;9.020;2022-10-16T06:05:46;1.60;;;1.50;;
4057;SDS011;2044;48.692;9.020;2022-10-16T06:08:13;2.90;;;1.87;;
4057;SDS011;2044;48.692;9.020;2022-10-16T06:10:40;2.10;;;1.70;;
4057;SDS011;2044;48.692;9.020;2022-10-16T06:13:07;1.50;;;1.40;;
4057;SDS011;2044;48.692;9.020;2022-10-16T06:15:35;3.30;;;1.80;;
4057;SDS011;2044;48.692;9.020;2022-10-16T06:18:03;1.90;;;1.60;;
4057;SDS011;2044;48.692;9.020;2022-10-16T06:20:33;1.43;;;1.33;;
4057;SDS011;2044;48.692;9.020;2022-10-16T06:23:00;1.60;;;1.50;;
4057;SDS011;2044;48.692;9.020;2022-10-16T06:25:29;3.47;;;1.50;;
4057;SDS011;2044;48.692;9.020;2022-10-16T06:27:55;3.87;;;1.70;;
4057;SDS011;2044;48.692;9.020;2022-10-16T06:30:22;2.23;;;1.80;;
4057;SDS011;2044;48.692;9.020;2022-10-16T06:32:50;2.50;;;1.57;;
4057;SDS011;2044;48.692;9.020;2022-10-16T06:35:17;1.77;;;1.67;;
4057;SDS011;2044;48.692;9.020;2022-10-16T06:37:44;4.23;;;1.83;;
4057;SDS011;2044;48.692;9.020;2022-10-16T06:40:13;1.57;;;1.40;;
4057;SDS011;2044;48.692;9.020;2022-10-16T06:42:40;2.53;;;1.50;;
4057;SDS011;2044;48.692;9.020;2022-10-16T06:45:09;1.97;;;1.77;;
4057;SDS011;2044;48.692;9.020;2022-10-16T06:47:36;2.70;;;1.20;;
4057;SDS011;2044;48.692;9.020;2022-10-16T06:50:05;1.67;;;1.57;;
4057;SDS011;2044;48.692;9.020;2022-10-16T06:52:32;1.80;;;1.70;;
4057;SDS011;2044;48.692;9.020;2022-10-16T06:54:59;2.50;;;1.77;;
4057;SDS011;2044;48.692;9.020;2022-10-16T06:57:27;1.90;;;1.80;;
4057;SDS011;2044;48.692;9.020;2022-10-16T06:59:54;5.93;;;1.60;;
4057;SDS011;2044;48.692;9.020;2022-10-16T07:02:21;3.93;;;1.77;;
4057;SDS011;2044;48.692;9.020;2022-10-16T07:04:48;1.43;;;1.33;;
4057;SDS011;2044;48.692;9.020;2022-10-16T07:07:16;2.73;;;1.87;;
4057;SDS011;2044;48.692;9.020;2022-10-16T07:09:42;1.53;;;1.43;;
4057;SDS011;2044;48.692;9.020;2022-10-16T07:12:09;1.67;;;1.50;;
4057;SDS011;2044;48.692;9.020;2022-10-16T07:14:36;2.27;;;1.30;;
4057;SDS011;2044;48.692;9.020;2022-10-16T07:17:02;2.10;;;1.47;;
4057;SDS011;2044;48.692;9.020;2022-10-16T07:19:29;5.67;;;2.30;;
4057;SDS011;2044;48.692;9.020;2022-10-16T07:21:56;1.97;;;1.40;;
4057;SDS011;2044;48.692;9.020;2022-10-16T07:24:24;1.77;;;1.67;;
4057;SDS011;2044;48.692;9.020;2022-10-16T07:26:51;2.27;;;1.73;;
4057;SDS011;2044;48.692;9.020;2022-10-16T07:29:18;3.60;;;1.80;;
4057;SDS011;2044;48.692;9.020;2022-10-16T07:31:47;3.57;;;1.83;;
4057;SDS011;2044;48.692;9.020;2022-10-16T07:34:14;1.53;;;1.43;;
4057;SDS011;2044;48.692;9.020;2022-10-16T07:36:42;3.93;;;1.73;;
4057;SDS011;2044;48.692;9.020;2022-10-16T07:39:09;3.67;;;1.70;;
4057;SDS011;2044;48.692;9.020;2022-10-16T07:41:37;1.60;;;1.50;;
4057;SDS011;2044;48.692;9.020;2022-10-16T07:44:04;1.77;;;1.40;;
4057;SDS011;2044;48.692;9.020;2022-10-16T07:46:31;1.33;;;1.20;;
4057;SDS011;2044;48.692;9.020;2022-10-16T07:48:59;1.80;;;1.67;;
4057;SDS011;2044;48.692;9.020;2022-10-16T07:51:26;2.27;;;1.60;;
4057;SDS011;2044;48.692;9.020;2022-10-16T07:53:53;5.13;;;1.60;;
4057;SDS011;2044;48.692;9.020;2022-10-16T07:56:20;1.53;;;1.40;;
4057;SDS011;2044;48.692;9.020;2022-10-16T07:58:49;3.57;;;1.80;;
4057;SDS011;2044;48.692;9.020;2022-10-16T08:01:16;1.43;;;1.33;;
4057;SDS011;2044;48.692;9.020;2022-10-16T08:03:45;2.67;;;1.60;;
4057;SDS011;2044;48.692;9.020;2022-10-16T08:06:12;2.00;;;1.43;;
4057;SDS011;2044;48.692;9.020;2022-10-16T08:08:40;3.33;;;1.90;;
4057;SDS011;2044;48.692;9.020;2022-10-16T08:11:07;1.57;;;1.47;;
4057;SDS011;2044;48.692;9.020;2022-10-16T08:13:33;1.70;;;1.60;;
4057;SDS011;2044;48.692;9.020;2022-10-16T08:16:02;1.93;;;1.30;;
4057;SDS011;2044;48.692;9.020;2022-10-16T08:18:32;2.00;;;1.40;;
4057;SDS011;2044;48.692;9.020;2022-10-16T08:21:00;1.57;;;1.40;;
4057;SDS011;2044;48.692;9.020;2022-10-16T08:23:26;1.70;;;1.60;;
4057;SDS011;2044;48.692;9.020;2022-10-16T08:25:53;4.20;;;1.93;;
4057;SDS011;2044;48.692;9.020;2022-10-16T08:28:21;1.67;;;1.57;;
4057;SDS011;2044;48.692;9.020;2022-10-16T08:30:48;6.03;;;1.60;;
4057;SDS011;2044;48.692;9.020;2022-10-16T08:33:17;2.33;;;1.60;;
4057;SDS011;2044;48.692;9.020;2022-10-16T08:35:49;2.10;;;1.53;;
4057;SDS011;2044;48.692;9.020;2022-10-16T08:38:17;1.40;;;1.30;;
4057;SDS011;2044;48.692;9.020;2022-10-16T08:40:44;1.60;;;1.50;;
4057;SDS011;2044;48.692;9.020;2022-10-16T08:43:17;5.83;;;1.83;;
4057;SDS011;2044;48.692;9.020;2022-10-16T08:46:03;2.73;;;1.63;;
4057;SDS011;2044;48.692;9.020;2022-10-16T08:48:44;3.83;;;1.63;;
4057;SDS011;2044;48.692;9.020;2022-10-16T08:51:16;1.57;;;1.47;;
4057;SDS011;2044;48.692;9.020;2022-10-16T08:53:50;1.87;;;1.67;;
4057;SDS011;2044;48.692;9.020;2022-10-16T08:56:20;1.50;;;1.40;;
4057;SDS011;2044;48.692;9.020;2022-10-16T08:58:47;3.07;;;1.53;;
4057;SDS011;2044;48.692;9.020;2022-10-16T09:01:15;2.53;;;1.73;;
4057;SDS011;2044;48.692;9.020;2022-10-16T09:06:52;1.90;;;1.40;;
4057;SDS011;2044;48.692;9.020;2022-10-16T09:09:27;2.03;;;1.60;;
4057;SDS011;2044;48.692;9.020;2022-10-16T09:12:08;2.40;;;1.47;;
4057;SDS011;2044;48.692;9.020;2022-10-16T09:14:50;2.33;;;1.57;;
4057;SDS011;2044;48.692;9.020;2022-10-16T09:17:27;1.40;;;1.30;;
4057;SDS011;2044;48.692;9.020;2022-10-16T09:20:03;1.60;;;1.50;;
4057;SDS011;2044;48.692;9.020;2022-10-16T09:22:50;2.70;;;1.97;;
4057;SDS011;2044;48.692;9.020;2022-10-16T09:25:20;2.10;;;1.73;;
4057;SDS011;2044;48.692;9.020;2022-10-16T09:27:55;2.33;;;2.13;;
4057;SDS011;2044;48.692;9.020;2022-10-16T09:30:22;2.00;;;1.90;;
4057;SDS011;2044;48.692;9.020;2022-10-16T09:32:52;3.00;;;1.57;;
4057;SDS011;2044;48.692;9.020;2022-10-16T09:35:20;2.00;;;1.77;;
4057;SDS011;2044;48.692;9.020;2022-10-16T09:37:52;1.87;;;1.77;;
4057;SDS011;2044;48.692;9.020;2022-10-16T09:40:24;2.13;;;1.90;;
4057;SDS011;2044;48.692;9.020;2022-10-16T09:42:53;1.50;;;1.40;;
4057;SDS011;2044;48.692;9.020;2022-10-16T09:45:27;3.10;;;1.57;;
4057;SDS011;2044;48.692;9.020;2022-10-16T09:47:54;4.90;;;1.47;;
4057;SDS011;2044;48.692;9.020;2022-10-16T09:50:22;2.07;;;1.70;;
4057;SDS011;2044;48.692;9.020;2022-10-16T09:52:52;1.60;;;1.50;;
4057;SDS011;2044;48.692;9.020;2022-10-16T09:55:30;4.23;;;2.03;;
4057;SDS011;2044;48.692;9.020;2022-10-16T09:57:57;1.93;;;1.83;;
4057;SDS011;2044;48.692;9.020;2022-10-16T10:00:24;3.20;;;2.00;;
4057;SDS011;2044;48.692;9.020;2022-10-16T10:02:51;2.40;;;2.30;;
4057;SDS011;2044;48.692;9.020;2022-10-16T10:05:20;2.23;;;2.13;;
4057;SDS011;2044;48.692;9.020;2022-10-16T10:07:53;4.23;;;3.20;;
4057;SDS011;2044;48.692;9.020;2022-10-16T10:10:22;4.17;;;3.97;;
4057;SDS011;2044;48.692;9.020;2022-10-16T10:12:50;4.97;;;4.67;;
4057;SDS011;2044;48.692;9.020;2022-10-16T10:15:17;8.53;;;4.43;;
4057;SDS011;2044;48.692;9.020;2022-10-16T10:17:47;4.80;;;4.60;;
4057;SDS011;2044;48.692;9.020;2022-10-16T10:20:21;4.67;;;4.50;;
4057;SDS011;2044;48.692;9.020;2022-10-16T10:22:50;4.73;;;4.63;;
4057;SDS011;2044;48.692;9.020;2022-10-16T10:28:13;4.43;;;4.27;;
4057;SDS011;2044;48.692;9.020;2022-10-16T10:30:53;4.67;;;4.47;;
4057;SDS011;2044;48.692;9.020;2022-10-16T10:33:28;5.57;;;5.07;;
4057;SDS011;2044;48.692;9.020;2022-10-16T10:36:05;5.10;;;4.90;;
4057;SDS011;2044;48.692;9.020;2022-10-16T10:38:39;5.40;;;4.90;;
4057;SDS011;2044;48.692;9.020;2022-10-16T10:41:21;4.90;;;4.70;;
4057;SDS011;2044;48.692;9.020;2022-10-16T10:44:07;4.60;;;4.40;;
4057;SDS011;2044;48.692;9.020;2022-10-16T10:46:44;5.30;;;5.10;;
4057;SDS011;2044;48.692;9.020;2022-10-16T10:49:19;5.30;;;4.90;;
4057;SDS011;2044;48.692;9.020;2022-10-16T10:52:00;4.53;;;4.23;;
4057;SDS011;2044;48.692;9.020;2022-10-16T10:54:38;5.20;;;4.90;;
4057;SDS011;2044;48.692;9.020;2022-10-16T10:57:15;4.90;;;4.70;;
4057;SDS011;2044;48.692;9.020;2022-10-16T10:59:56;5.03;;;4.73;;
4057;SDS011;2044;48.692;9.020;2022-10-16T11:02:32;5.10;;;4.90;;
4057;SDS011;2044;48.692;9.020;2022-10-16T11:05:14;5.60;;;5.10;;
4057;SDS011;2044;48.692;9.020;2022-10-16T11:07:49;5.47;;;5.27;;
4057;SDS011;2044;48.692;9.020;2022-10-16T11:10:21;6.00;;;5.40;;
4057;SDS011;2044;48.692;9.020;2022-10-16T11:12:51;6.03;;;5.57;;
4057;SDS011;2044;48.692;9.020;2022-10-16T11:15:21;5.67;;;5.20;;
4057;SDS011;2044;48.692;9.020;2022-10-16T11:17:55;5.70;;;5.30;;
4057;SDS011;2044;48.692;9.020;2022-10-16T11:20:26;4.67;;;4.37;;
4057;SDS011;2044;48.692;9.020;2022-10-16T11:22:58;4.77;;;4.50;;
4057;SDS011;2044;48.692;9.020;2022-10-16T11:25:29;5.20;;;5.00;;
4057;SDS011;2044;48.692;9.020;2022-10-16T11:27:59;5.40;;;5.10;;
4057;SDS011;2044;48.692;9.020;2022-10-16T11:30:29;5.23;;;5.03;;
4057;SDS011;2044;48.692;9.020;2022-10-16T11:33:08;5.77;;;5.47;;
4057;SDS011;2044;48.692;9.020;2022-10-16T11:35:48;5.27;;;5.07;;
4057;SDS011;2044;48.692;9.020;2022-10-16T11:38:21;5.20;;;5.00;;
4057;SDS011;2044;48.692;9.020;2022-10-16T11:40:56;4.90;;;4.70;;
4057;SDS011;2044;48.692;9.020;2022-10-16T11:43:28;5.77;;;5.57;;
4057;SDS011;2044;48.692;9.020;2022-10-16T11:45:58;5.50;;;5.30;;
4057;SDS011;2044;48.692;9.020;2022-10-16T11:48:32;6.00;;;5.80;;
4057;SDS011;2044;48.692;9.020;2022-10-16T11:51:05;6.10;;;5.70;;
4057;SDS011;2044;48.692;9.020;2022-10-16T11:53:42;5.63;;;5.43;;
4057;SDS011;2044;48.692;9.020;2022-10-16T11:56:12;5.50;;;5.30;;
4057;SDS011;2044;48.692;9.020;2022-10-16T11:58:45;6.10;;;5.90;;
4057;SDS011;2044;48.692;9.020;2022-10-16T12:01:21;6.80;;;6.50;;
4057;SDS011;2044;48.692;9.020;2022-10-16T12:03:56;6.30;;;6.00;;
4057;SDS011;2044;48.692;9.020;2022-10-16T12:06:32;5.70;;;5.50;;
4057;SDS011;2044;48.692;9.020;2022-10-16T12:09:03;5.43;;;5.10;;
4057;SDS011;2044;48.692;9.020;2022-10-16T12:11:31;5.80;;;5.50;;
4057;SDS011;2044;48.692;9.020;2022-10-16T12:14:07;6.20;;;6.00;;
4057;SDS011;2044;48.692;9.020;2022-10-16T12:16:52;5.97;;;5.53;;
4057;SDS011;2044;48.692;9.020;2022-10-16T12:19:21;6.33;;;5.90;;
4057;SDS011;2044;48.692;9.020;2022-10-16T12:21:48;5.90;;;5.70;;
4057;SDS011;2044;48.692;9.020;2022-10-16T12:24:21;5.90;;;5.60;;
4057;SDS011;2044;48.692;9.020;2022-10-16T12:26:55;5.80;;;5.40;;
4057;SDS011;2044;48.692;9.020;2022-10-16T12:29:26;6.10;;;5.80;;
4057;SDS011;2044;48.692;9.020;2022-10-16T12:31:59;6.80;;;6.40;;
4057;SDS011;2044;48.692;9.020;2022-10-16T12:34:27;6.40;;;6.10;;
4057;SDS011;2044;48.692;9.020;2022-10-16T12:36:55;6.40;;;6.00;;
4057;SDS011;2044;48.692;9.020;2022-10-16T12:39:33;6.23;;;6.03;;
4057;SDS011;2044;48.692;9.020;2022-10-16T12:42:02;6.33;;;6.03;;
4057;SDS011;2044;48.692;9.020;2022-10-16T12:44:35;6.47;;;6.10;;
4057;SDS011;2044;48.692;9.020;2022-10-16T12:47:02;5.80;;;5.40;;
4057;SDS011;2044;48.692;9.020;2022-10-16T12:49:32;5.77;;;5.50;;
4057;SDS011;2044;48.692;9.020;2022-10-16T12:52:03;5.90;;;5.60;;
4057;SDS011;2044;48.692;9.020;2022-10-16T12:54:30;5.87;;;5.67;;
4057;SDS011;2044;48.692;9.020;2022-10-16T12:57:13;6.07;;;5.77;;
4057;SDS011;2044;48.692;9.020;2022-10-16T12:59:59;6.50;;;5.90;;
4057;SDS011;2044;48.692;9.020;2022-10-16T13:05:46;6.07;;;5.77;;
4057;SDS011;2044;48.692;9.020;2022-10-16T13:08:30;6.50;;;6.10;;
4057;SDS011;2044;48.692;9.020;2022-10-16T13:11:08;5.70;;;5.50;;
4057;SDS011;2044;48.692;9.020;2022-10-16T13:13:53;6.70;;;6.10;;
4057;SDS011;2044;48.692;9.020;2022-10-16T13:16:35;6.27;;;5.90;;
4057;SDS011;2044;48.692;9.020;2022-10-16T13:19:17;6.40;;;6.10;;
4057;SDS011;2044;48.692;9.020;2022-10-16T13:21:51;6.63;;;6.23;;
4057;SDS011;2044;48.692;9.020;2022-10-16T13:24:30;6.83;;;6.43;;
4057;SDS011;2044;48.692;9.020;2022-10-16T13:27:10;6.80;;;6.53;;
4057;SDS011;2044;48.692;9.020;2022-10-16T13:29:44;7.40;;;7.10;;
4057;SDS011;2044;48.692;9.020;2022-10-16T13:32:19;6.80;;;6.30;;
4057;SDS011;2044;48.692;9.020;2022-10-16T13:34:46;7.10;;;6.80;;
4057;SDS011;2044;48.692;9.020;2022-10-16T13:37:18;7.83;;;7.13;;
4057;SDS011;2044;48.692;9.020;2022-10-16T13:39:45;6.77;;;6.50;;
4057;SDS011;2044;48.692;9.020;2022-10-16T13:42:13;6.47;;;6.17;;
4057;SDS011;2044;48.692;9.020;2022-10-16T13:44:43;7.17;;;6.77;;
4057;SDS011;2044;48.692;9.020;2022-10-16T13:47:16;6.87;;;6.47;;
4057;SDS011;2044;48.692;9.020;2022-10-16T13:49:46;7.13;;;6.73;;
4057;SDS011;2044;48.692;9.020;2022-10-16T13:52:24;7.70;;;7.20;;
4057;SDS011;2044;48.692;9.020;2022-10-16T13:54:51;9.07;;;8.30;;
4057;SDS011;2044;48.692;9.020;2022-10-16T13:57:18;6.83;;;6.50;;
4057;SDS011;2044;48.692;9.020;2022-10-16T13:59:49;7.10;;;6.50;;
4057;SDS011;2044;48.692;9.020;2022-10-16T14:02:18;7.27;;;6.70;;
4057;SDS011;2044;48.692;9.020;2022-10-16T14:04:49;6.57;;;6.27;;
4057;SDS011;2044;48.692;9.020;2022-10-16T14:07:18;6.93;;;6.53;;
4057;SDS011;2044;48.692;9.020;2022-10-16T14:09:49;6.20;;;6.00;;
4057;SDS011;2044;48.692;9.020;2022-10-16T14:12:17;7.13;;;6.73;;
4057;SDS011;2044;48.692;9.020;2022-10-16T14:14:44;6.97;;;6.47;;
4057;SDS011;2044;48.692;9.020;2022-10-16T14:17:13;6.63;;;6.13;;
4057;SDS011;2044;48.692;9.020;2022-10-16T14:19:45;35.67;;;29.10;;
4057;SDS011;2044;48.692;9.020;2022-10-16T14:22:21;6.80;;;6.40;;
4057;SDS011;2044;48.692;9.020;2022-10-16T14:24:53;7.93;;;7.40;;
4057;SDS011;2044;48.692;9.020;2022-10-16T14:27:28;7.60;;;7.20;;
4057;SDS011;2044;48.692;9.020;2022-10-16T14:30:12;7.33;;;7.03;;
4057;SDS011;2044;48.692;9.020;2022-10-16T14:32:42;7.10;;;6.80;;
4057;SDS011;2044;48.692;9.020;2022-10-16T14:35:24;7.50;;;7.10;;
4057;SDS011;2044;48.692;9.020;2022-10-16T14:37:54;6.63;;;6.33;;
4057;SDS011;2044;48.692;9.020;2022-10-16T14:40:23;6.57;;;6.17;;
4057;SDS011;2044;48.692;9.020;2022-10-16T14:42:52;7.53;;;7.13;;
4057;SDS011;2044;48.692;9.020;2022-10-16T14:45:20;7.60;;;7.20;;
4057;SDS011;2044;48.692;9.020;2022-10-16T14:47:49;8.03;;;7.30;;
4057;SDS011;2044;48.692;9.020;2022-10-16T14:50:18;7.20;;;6.60;;
4057;SDS011;2044;48.692;9.020;2022-10-16T14:52:44;7.60;;;7.10;;
4057;SDS011;2044;48.692;9.020;2022-10-16T14:55:12;8.67;;;8.17;;
4057;SDS011;2044;48.692;9.020;2022-10-16T14:57:39;6.97;;;6.57;;
4057;SDS011;2044;48.692;9.020;2022-10-16T15:00:10;7.00;;;6.70;;
4057;SDS011;2044;48.692;9.020;2022-10-16T15:02:41;7.10;;;6.80;;
4057;SDS011;2044;48.692;9.020;2022-10-16T15:05:14;7.00;;;6.70;;
4057;SDS011;2044;48.692;9.020;2022-10-16T15:07:43;10.50;;;9.87;;
4057;SDS011;2044;48.692;9.020;2022-10-16T15:10:12;10.93;;;10.17;;
4057;SDS011;2044;48.692;9.020;2022-10-16T15:12:40;6.93;;;6.63;;
4057;SDS011;2044;48.692;9.020;2022-10-16T15:15:15;9.90;;;9.20;;
4057;SDS011;2044;48.692;9.020;2022-10-16T15:17:51;16.60;;;13.83;;
4057;SDS011;2044;48.692;9.020;2022-10-16T15:20:21;18.47;;;16.27;;
4057;SDS011;2044;48.692;9.020;2022-10-16T15:22:48;20.23;;;18.23;;
4057;SDS011;2044;48.692;9.020;2022-10-16T15:25:20;19.97;;;17.97;;
4057;SDS011;2044;48.692;9.020;2022-10-16T15:27:56;15.73;;;14.33;;
4057;SDS011;2044;48.692;9.020;2022-10-16T15:30:23;37.77;;;33.10;;
4057;SDS011;2044;48.692;9.020;2022-10-16T15:32:50;11.03;;;10.10;;
4057;SDS011;2044;48.692;9.020;2022-10-16T15:35:17;11.43;;;10.43;;
4057;SDS011;2044;48.692;9.020;2022-10-16T15:37:43;4.60;;;4.30;;
4057;SDS011;2044;48.692;9.020;2022-10-16T15:40:11;4.10;;;3.83;;
4057;SDS011;2044;48.692;9.020;2022-10-16T15:42:39;6.53;;;5.20;;